createdAt,value
2018-09-04T00:00:46.264Z,21.25
2018-09-04T00:03:15.029Z,21.25
2018-09-04T00:05:43.749Z,21.23
2018-09-04T00:08:12.765Z,21.23
2018-09-04T00:10:41.818Z,21.21
2018-09-04T00:13:10.774Z,21.19
2018-09-04T00:15:39.942Z,21.22
2018-09-04T00:18:08.700Z,21.20
2018-09-04T00:20:37.791Z,21.21
2018-09-04T00:23:06.919Z,21.20
2018-09-04T00:25:36.758Z,21.19
2018-09-04T00:28:05.591Z,21.17
2018-09-04T00:30:34.511Z,21.14
2018-09-04T00:33:03.662Z,21.12
2018-09-04T00:35:32.489Z,21.09
2018-09-04T00:38:01.184Z,21.07
2018-09-04T00:40:30.203Z,21.03
2018-09-04T00:42:58.920Z,21.00
2018-09-04T00:45:27.995Z,20.97
2018-09-04T00:47:57.226Z,20.95
2018-09-04T00:50:25.946Z,20.91
2018-09-04T00:52:55.093Z,20.89
2018-09-04T00:55:23.846Z,20.85
2018-09-04T00:57:52.597Z,20.81
2018-09-04T01:00:25.068Z,20.78
2018-09-04T01:02:54.987Z,20.74
2018-09-04T01:05:23.699Z,20.71
2018-09-04T01:07:52.777Z,20.68
2018-09-04T01:10:21.838Z,20.64
2018-09-04T01:12:51.330Z,20.60
2018-09-04T01:15:20.440Z,20.56
2018-09-04T01:17:49.692Z,20.51
2018-09-04T01:20:18.443Z,20.47
2018-09-04T01:22:47.751Z,20.43
2018-09-04T01:25:16.873Z,20.42
2018-09-04T01:27:45.967Z,20.39
2018-09-04T01:30:15.263Z,20.36
2018-09-04T01:32:44.248Z,20.31
2018-09-04T01:35:13.268Z,20.27
2018-09-04T01:37:42.477Z,20.23
2018-09-04T01:40:11.166Z,20.19
2018-09-04T01:42:39.871Z,20.15
2018-09-04T01:45:08.715Z,20.11
2018-09-04T01:47:43.943Z,20.09
2018-09-04T01:50:13.233Z,20.07
2018-09-04T01:52:42.319Z,20.06
2018-09-04T01:55:11.094Z,20.02
2018-09-04T01:57:39.815Z,19.99
2018-09-04T02:00:10.082Z,19.97
2018-09-04T02:02:38.845Z,19.95
2018-09-04T02:05:08.318Z,19.92
2018-09-04T02:07:37.394Z,19.90
2018-09-04T02:10:06.327Z,19.86
2018-09-04T02:12:35.446Z,19.80
2018-09-04T02:15:04.223Z,19.77
2018-09-04T02:17:33.341Z,19.73
2018-09-04T02:20:02.877Z,19.68
2018-09-04T02:22:31.629Z,19.65
2018-09-04T02:25:00.397Z,19.62
2018-09-04T02:27:29.394Z,19.60
2018-09-04T02:29:58.396Z,19.58
2018-09-04T02:32:27.172Z,19.55
2018-09-04T02:34:56.248Z,19.52
2018-09-04T02:37:24.958Z,19.47
2018-09-04T02:39:54.323Z,19.43
2018-09-04T02:42:23.363Z,19.44
2018-09-04T02:44:52.703Z,19.40
2018-09-04T02:47:22.013Z,19.37
2018-09-04T02:49:50.772Z,19.34
2018-09-04T02:52:19.535Z,19.32
2018-09-04T02:54:48.607Z,19.28
2018-09-04T02:57:17.355Z,19.25
2018-09-04T02:59:46.318Z,19.22
2018-09-04T03:02:18.323Z,19.19
2018-09-04T03:04:47.739Z,19.17
2018-09-04T03:07:17.199Z,19.15
2018-09-04T03:09:45.973Z,19.12
2018-09-04T03:12:14.726Z,19.10
2018-09-04T03:14:43.881Z,19.09
2018-09-04T03:17:13.011Z,19.07
2018-09-04T03:19:41.991Z,19.04
2018-09-04T03:22:11.226Z,19.03
2018-09-04T03:24:40.030Z,19.02
2018-09-04T03:27:08.857Z,18.99
2018-09-04T03:29:37.866Z,18.96
2018-09-04T03:32:07.231Z,18.93
2018-09-04T03:34:36.418Z,18.92
2018-09-04T03:37:05.614Z,18.90
2018-09-04T03:39:35.176Z,18.87
2018-09-04T03:42:03.909Z,18.84
2018-09-04T03:44:33.119Z,18.81
2018-09-04T03:47:01.873Z,18.80
2018-09-04T03:49:30.651Z,18.77
2018-09-04T03:51:59.401Z,18.77
2018-09-04T03:54:28.843Z,18.74
2018-09-04T03:56:57.598Z,18.73
2018-09-04T03:59:26.732Z,18.73
2018-09-04T04:01:55.750Z,18.70
2018-09-04T04:04:24.885Z,18.66
2018-09-04T04:06:53.637Z,18.63
2018-09-04T04:09:23.152Z,18.59
2018-09-04T04:11:51.958Z,18.56
2018-09-04T04:14:21.117Z,18.50
2018-09-04T04:16:50.652Z,18.47
2018-09-04T04:19:19.432Z,18.45
2018-09-04T04:21:48.199Z,18.43
2018-09-04T04:24:16.963Z,18.43
2018-09-04T04:26:46.084Z,18.42
2018-09-04T04:29:15.249Z,18.41
2018-09-04T04:31:44.542Z,18.39
2018-09-04T04:34:13.307Z,18.36
2018-09-04T04:36:42.076Z,18.33
2018-09-04T04:39:11.201Z,18.30
2018-09-04T04:41:39.983Z,18.29
2018-09-04T04:44:09.045Z,18.25
2018-09-04T04:46:38.750Z,18.24
2018-09-04T04:49:08.203Z,18.24
2018-09-04T04:51:37.190Z,18.23
2018-09-04T04:54:06.068Z,18.23
2018-09-04T04:56:35.176Z,18.19
2018-09-04T04:59:03.948Z,18.17
2018-09-04T05:01:33.370Z,18.14
2018-09-04T05:04:02.575Z,18.14
2018-09-04T05:06:32.006Z,18.11
2018-09-04T05:09:01.036Z,18.10
2018-09-04T05:11:29.885Z,18.09
2018-09-04T05:13:58.677Z,18.09
2018-09-04T05:16:27.368Z,18.08
2018-09-04T05:18:56.493Z,18.08
2018-09-04T05:21:25.564Z,18.05
2018-09-04T05:23:54.674Z,18.05
2018-09-04T05:26:23.686Z,18.04
2018-09-04T05:28:52.953Z,18.02
2018-09-04T05:31:21.824Z,18.02
2018-09-04T05:33:51.271Z,18.02
2018-09-04T05:36:20.557Z,18.05
2018-09-04T05:38:49.331Z,18.06
2018-09-04T05:41:18.148Z,18.06
2018-09-04T05:43:50.900Z,18.07
2018-09-04T05:46:29.056Z,18.10
2018-09-04T05:48:58.811Z,18.13
2018-09-04T05:51:27.839Z,18.14
2018-09-04T05:53:56.743Z,18.17
2018-09-04T05:56:25.558Z,18.19
2018-09-04T05:58:54.622Z,18.22
2018-09-04T06:01:23.849Z,18.27
2018-09-04T06:03:52.870Z,18.29
2018-09-04T06:06:22.051Z,18.33
2018-09-04T06:08:51.128Z,18.34
2018-09-04T06:11:19.891Z,18.35
2018-09-04T06:13:48.760Z,18.39
2018-09-04T06:16:17.557Z,18.42
2018-09-04T06:18:46.711Z,18.47
2018-09-04T06:21:16.015Z,18.51
2018-09-04T06:23:44.734Z,18.54
2018-09-04T06:26:13.934Z,18.60
2018-09-04T06:28:42.676Z,18.69
2018-09-04T06:31:12.089Z,18.74
2018-09-04T06:33:41.871Z,18.80
2018-09-04T06:36:10.853Z,18.86
2018-09-04T06:38:39.930Z,18.93
2018-09-04T06:41:08.644Z,18.98
2018-09-04T06:43:38.342Z,19.03
2018-09-04T06:46:07.149Z,19.09
2018-09-04T06:48:36.487Z,19.19
2018-09-04T06:51:05.760Z,19.26
2018-09-04T06:53:34.499Z,19.33
2018-09-04T06:56:03.473Z,19.40
2018-09-04T06:58:32.808Z,19.49
2018-09-04T07:01:01.643Z,19.63
2018-09-04T07:03:30.417Z,19.70
2018-09-04T07:05:59.432Z,19.74
2018-09-04T07:08:28.699Z,19.82
2018-09-04T07:10:57.506Z,19.89
2018-09-04T07:13:26.258Z,19.95
2018-09-04T07:15:58.271Z,20.02
2018-09-04T07:18:27.901Z,20.09
2018-09-04T07:20:56.729Z,20.20
2018-09-04T07:23:25.899Z,20.22
2018-09-04T07:25:54.685Z,20.29
2018-09-04T07:28:23.830Z,20.39
2018-09-04T07:30:52.647Z,20.42
2018-09-04T07:33:21.699Z,20.46
2018-09-04T07:35:51.108Z,20.54
2018-09-04T07:38:19.892Z,20.64
2018-09-04T07:40:48.896Z,20.76
2018-09-04T07:43:18.435Z,20.85
2018-09-04T07:45:47.284Z,20.96
2018-09-04T07:48:16.046Z,21.04
2018-09-04T07:50:45.253Z,21.14
2018-09-04T07:53:15.024Z,21.25
2018-09-04T07:55:43.735Z,21.37
2018-09-04T07:58:12.829Z,21.50
2018-09-04T08:00:41.562Z,21.62
2018-09-04T08:03:10.909Z,21.73
2018-09-04T08:05:39.732Z,21.83
2018-09-04T08:08:08.516Z,21.89
2018-09-04T08:10:37.206Z,21.99
2018-09-04T08:13:07.242Z,22.09
2018-09-04T08:15:36.418Z,22.27
2018-09-04T08:18:05.822Z,22.39
2018-09-04T08:20:34.736Z,22.51
2018-09-04T08:23:03.663Z,22.59
2018-09-04T08:25:32.836Z,22.70
2018-09-04T08:28:01.891Z,22.81
2018-09-04T08:30:31.384Z,22.92
2018-09-04T08:33:00.510Z,22.95
2018-09-04T08:35:29.115Z,23.03
2018-09-04T08:38:00.768Z,23.15
2018-09-04T08:40:31.924Z,23.27
2018-09-04T08:43:00.815Z,23.36
2018-09-04T08:45:30.484Z,23.52
2018-09-04T08:48:02.639Z,23.58
2018-09-04T08:50:33.666Z,23.67
2018-09-04T08:53:03.035Z,23.80
2018-09-04T08:55:32.438Z,23.94
2018-09-04T08:58:01.241Z,24.07
2018-09-04T09:00:30.012Z,24.16
2018-09-04T09:02:58.976Z,24.25
2018-09-04T09:05:27.998Z,24.40
2018-09-04T09:07:56.689Z,24.54
2018-09-04T09:10:25.795Z,24.70
2018-09-04T09:12:54.759Z,24.85
2018-09-04T09:15:23.517Z,25.00
2018-09-04T09:17:52.287Z,25.18
2018-09-04T09:20:21.061Z,25.27
2018-09-04T09:22:49.861Z,25.43
2018-09-04T09:25:18.849Z,25.62
2018-09-04T09:27:47.613Z,25.83
2018-09-04T09:30:17.003Z,25.92
2018-09-04T09:32:45.949Z,26.01
2018-09-04T09:35:15.168Z,26.05
2018-09-04T09:37:43.913Z,26.13
2018-09-04T09:40:12.629Z,26.12
2018-09-04T09:42:41.874Z,26.21
2018-09-04T09:45:11.479Z,26.36
2018-09-04T09:47:45.623Z,26.40
2018-09-04T09:50:14.357Z,26.35
2018-09-04T09:52:43.245Z,26.48
2018-09-04T09:55:12.610Z,26.59
2018-09-04T09:57:42.130Z,26.71
2018-09-04T10:00:19.042Z,26.91
2018-09-04T10:02:51.949Z,26.98
2018-09-04T10:05:21.411Z,27.01
2018-09-04T10:07:50.533Z,27.19
2018-09-04T10:10:19.504Z,27.36
2018-09-04T10:12:48.376Z,27.39
2018-09-04T10:15:17.143Z,27.42
2018-09-04T10:17:46.839Z,27.44
2018-09-04T10:20:15.711Z,27.48
2018-09-04T10:22:44.962Z,27.62
2018-09-04T10:25:13.782Z,27.91
2018-09-04T10:27:42.821Z,28.23
2018-09-04T10:30:14.395Z,28.36
2018-09-04T10:32:53.632Z,28.52
2018-09-04T10:35:23.380Z,28.77
2018-09-04T10:37:52.337Z,28.99
2018-09-04T10:40:26.709Z,29.11
2018-09-04T10:42:55.715Z,29.23
2018-09-04T10:45:29.695Z,29.35
2018-09-04T10:47:58.437Z,29.32
2018-09-04T10:50:27.300Z,29.44
2018-09-04T10:52:56.018Z,29.53
2018-09-04T10:55:25.523Z,29.69
2018-09-04T10:57:54.648Z,29.82
2018-09-04T11:00:23.367Z,29.91
2018-09-04T11:02:52.213Z,30.15
2018-09-04T11:05:22.046Z,30.23
2018-09-04T11:07:51.205Z,30.38
2018-09-04T11:10:20.323Z,30.55
2018-09-04T11:12:49.138Z,30.75
2018-09-04T11:15:18.101Z,31.02
2018-09-04T11:17:46.866Z,31.01
2018-09-04T11:20:16.094Z,31.20
2018-09-04T11:22:44.882Z,31.30
2018-09-04T11:25:13.619Z,31.22
2018-09-04T11:27:42.366Z,31.40
2018-09-04T11:30:13.101Z,31.40
2018-09-04T11:32:42.606Z,31.41
2018-09-04T11:35:11.787Z,31.65
2018-09-04T11:37:40.932Z,31.79
2018-09-04T11:40:10.485Z,32.05
2018-09-04T11:42:39.795Z,32.35
2018-09-04T11:45:09.223Z,32.45
2018-09-04T11:47:41.140Z,32.59
2018-09-04T11:50:10.390Z,32.69
2018-09-04T11:52:39.582Z,32.86
2018-09-04T11:55:09.149Z,32.51
2018-09-04T11:57:38.484Z,32.58
2018-09-04T12:00:09.012Z,32.85
2018-09-04T12:02:39.263Z,33.28
2018-09-04T12:05:08.017Z,33.66
2018-09-04T12:07:37.233Z,33.78
2018-09-04T12:10:07.289Z,33.90
2018-09-04T12:12:36.503Z,34.01
2018-09-04T12:15:05.165Z,34.21
2018-09-04T12:17:33.871Z,34.44
2018-09-04T12:20:10.121Z,34.26
2018-09-04T12:22:39.617Z,34.21
2018-09-04T12:25:08.473Z,33.95
2018-09-04T12:27:37.252Z,33.65
2018-09-04T12:30:06.595Z,33.26
2018-09-04T12:32:35.351Z,32.88
2018-09-04T12:35:04.086Z,32.89
2018-09-04T12:37:32.803Z,32.74
2018-09-04T12:40:01.553Z,32.70
2018-09-04T12:42:30.381Z,32.61
2018-09-04T12:45:00.620Z,32.76
2018-09-04T12:47:29.462Z,32.96
2018-09-04T12:49:58.209Z,33.03
2018-09-04T12:52:26.959Z,33.13
2018-09-04T12:54:55.867Z,33.31
2018-09-04T12:57:24.662Z,33.20
2018-09-04T12:59:54.062Z,33.19
2018-09-04T13:02:22.810Z,33.49
2018-09-04T13:04:51.601Z,33.65
2018-09-04T13:07:20.850Z,33.72
2018-09-04T13:09:49.882Z,33.39
2018-09-04T13:12:18.727Z,33.14
2018-09-04T13:14:47.563Z,32.80
2018-09-04T13:17:16.339Z,32.38
2018-09-04T13:19:45.413Z,32.28
2018-09-04T13:22:14.282Z,32.32
2018-09-04T13:24:43.707Z,32.60
2018-09-04T13:27:12.796Z,32.88
2018-09-04T13:29:41.549Z,33.08
2018-09-04T13:32:10.619Z,33.27
2018-09-04T13:34:39.325Z,33.41
2018-09-04T13:37:09.202Z,33.33
2018-09-04T13:39:38.535Z,33.12
2018-09-04T13:42:08.002Z,33.17
2018-09-04T13:44:37.239Z,33.46
2018-09-04T13:47:06.349Z,33.75
2018-09-04T13:49:35.255Z,33.51
2018-09-04T13:52:04.344Z,33.58
2018-09-04T13:54:33.407Z,33.71
2018-09-04T13:57:02.107Z,33.91
2018-09-04T13:59:31.131Z,34.27
2018-09-04T14:01:59.930Z,34.54
2018-09-04T14:04:29.236Z,34.55
2018-09-04T14:06:58.706Z,34.61
2018-09-04T14:09:27.761Z,34.70
2018-09-04T14:11:56.901Z,34.75
2018-09-04T14:14:26.223Z,34.72
2018-09-04T14:16:55.050Z,34.44
2018-09-04T14:19:23.854Z,34.12
2018-09-04T14:21:53.065Z,34.06
2018-09-04T14:24:22.179Z,33.97
2018-09-04T14:26:51.586Z,33.89
2018-09-04T14:29:53.162Z,33.94
2018-09-04T14:31:49.635Z,33.80
2018-09-04T14:34:18.367Z,33.65
2018-09-04T14:36:48.005Z,33.38
2018-09-04T14:39:16.579Z,33.37
2018-09-04T14:41:45.919Z,33.59
2018-09-04T14:44:14.687Z,33.62
2018-09-04T14:46:44.610Z,33.77
2018-09-04T14:49:13.485Z,33.78
2018-09-04T14:51:42.565Z,33.80
2018-09-04T14:54:11.871Z,33.81
2018-09-04T14:56:41.945Z,33.88
2018-09-04T14:59:10.830Z,33.87
2018-09-04T15:01:40.042Z,33.81
2018-09-04T15:04:08.751Z,33.64
2018-09-04T15:06:38.624Z,33.44
2018-09-04T15:09:07.639Z,33.28
2018-09-04T15:11:36.390Z,33.17
2018-09-04T15:14:05.389Z,33.04
2018-09-04T15:16:35.164Z,33.11
2018-09-04T15:19:04.212Z,33.23
2018-09-04T15:21:33.262Z,33.30
2018-09-04T15:24:02.799Z,33.16
2018-09-04T15:26:31.587Z,32.91
2018-09-04T15:29:00.323Z,32.95
2018-09-04T15:31:29.566Z,32.78
2018-09-04T15:33:58.305Z,32.57
2018-09-04T15:36:27.058Z,32.43
2018-09-04T15:38:56.699Z,32.28
2018-09-04T15:41:25.993Z,32.27
2018-09-04T15:43:54.863Z,32.20
2018-09-04T15:46:23.624Z,31.98
2018-09-04T15:48:58.203Z,31.90
2018-09-04T15:51:27.278Z,31.83
2018-09-04T15:53:56.259Z,31.58
2018-09-04T15:56:25.077Z,31.44
2018-09-04T15:58:54.086Z,31.19
2018-09-04T16:01:22.892Z,31.15
2018-09-04T16:03:52.238Z,30.98
2018-09-04T16:06:21.737Z,30.83
2018-09-04T16:08:50.488Z,30.68
2018-09-04T16:11:19.527Z,30.63
2018-09-04T16:13:48.514Z,30.60
2018-09-04T16:16:17.283Z,30.57
2018-09-04T16:18:46.354Z,30.53
2018-09-04T16:21:15.410Z,30.54
2018-09-04T16:23:44.113Z,30.41
2018-09-04T16:26:12.985Z,30.29
2018-09-04T16:28:41.700Z,30.15
2018-09-04T16:31:11.166Z,30.10
2018-09-04T16:33:40.000Z,30.15
2018-09-04T16:36:09.056Z,30.12
2018-09-04T16:38:38.809Z,29.98
2018-09-04T16:41:07.793Z,29.93
2018-09-04T16:43:37.053Z,29.84
2018-09-04T16:46:05.841Z,29.68
2018-09-04T16:48:34.634Z,29.51
2018-09-04T16:51:05.174Z,29.45
2018-09-04T16:53:34.144Z,29.25
2018-09-04T16:56:03.334Z,29.13
2018-09-04T16:58:33.087Z,29.04
2018-09-04T17:01:02.274Z,28.88
2018-09-04T17:03:31.777Z,28.80
2018-09-04T17:06:00.721Z,28.71
2018-09-04T17:08:29.459Z,28.65
2018-09-04T17:10:58.498Z,28.58
2018-09-04T17:13:27.258Z,28.48
2018-09-04T17:15:56.223Z,28.34
2018-09-04T17:18:25.001Z,28.21
2018-09-04T17:20:54.223Z,28.16
2018-09-04T17:23:23.733Z,28.15
2018-09-04T17:25:52.877Z,28.12
2018-09-04T17:28:21.908Z,28.04
2018-09-04T17:30:50.619Z,27.96
2018-09-04T17:33:19.518Z,27.89
2018-09-04T17:35:48.232Z,27.82
2018-09-04T17:38:17.516Z,27.74
2018-09-04T17:40:46.587Z,27.64
2018-09-04T17:43:15.881Z,27.49
2018-09-04T17:45:45.269Z,27.41
2018-09-04T17:48:14.073Z,27.26
2018-09-04T17:50:43.382Z,27.15
2018-09-04T17:53:12.450Z,27.10
2018-09-04T17:55:41.562Z,27.00
2018-09-04T17:58:10.773Z,26.93
2018-09-04T18:00:42.546Z,26.88
2018-09-04T18:03:11.337Z,26.81
2018-09-04T18:05:40.639Z,26.71
2018-09-04T18:08:09.950Z,26.68
2018-09-04T18:10:38.992Z,26.64
2018-09-04T18:13:07.752Z,26.54
2018-09-04T18:15:36.532Z,26.52
2018-09-04T18:18:06.187Z,26.48
2018-09-04T18:20:34.980Z,26.37
2018-09-04T18:23:03.708Z,26.25
2018-09-04T18:25:32.826Z,26.14
2018-09-04T18:28:01.900Z,26.08
2018-09-04T18:30:31.030Z,26.05
2018-09-04T18:33:00.053Z,25.99
2018-09-04T18:35:28.813Z,25.90
2018-09-04T18:37:57.730Z,25.82
2018-09-04T18:40:26.465Z,25.74
2018-09-04T18:42:55.265Z,25.71
2018-09-04T18:45:35.466Z,25.64
2018-09-04T18:48:05.110Z,25.58
2018-09-04T18:50:34.115Z,25.52
2018-09-04T18:53:03.138Z,25.45
2018-09-04T18:55:32.274Z,25.38
2018-09-04T18:58:01.447Z,25.29
2018-09-04T19:00:30.293Z,25.22
2018-09-04T19:02:59.634Z,25.16
2018-09-04T19:05:28.758Z,25.08
2018-09-04T19:07:58.526Z,25.01
2018-09-04T19:10:27.806Z,24.92
2018-09-04T19:12:57.071Z,24.82
2018-09-04T19:15:26.320Z,24.68
2018-09-04T19:17:55.631Z,24.54
2018-09-04T19:20:24.866Z,24.42
2018-09-04T19:22:54.744Z,24.35
2018-09-04T19:25:24.581Z,24.29
2018-09-04T19:27:53.714Z,24.23
2018-09-04T19:30:23.007Z,24.19
2018-09-04T19:32:52.105Z,24.14
2018-09-04T19:35:21.228Z,24.08
2018-09-04T19:37:50.130Z,23.98
2018-09-04T19:40:19.401Z,23.91
2018-09-04T19:42:48.179Z,23.84
2018-09-04T19:45:17.005Z,23.76
2018-09-04T19:47:45.813Z,23.69
2018-09-04T19:50:14.594Z,23.60
2018-09-04T19:52:43.404Z,23.53
2018-09-04T19:55:13.724Z,23.50
2018-09-04T19:57:42.464Z,23.45
2018-09-04T20:00:11.600Z,23.40
2018-09-04T20:02:40.482Z,23.35
2018-09-04T20:05:09.860Z,23.30
2018-09-04T20:07:39.260Z,23.24
2018-09-04T20:10:08.076Z,23.15
2018-09-04T20:12:37.093Z,23.09
2018-09-04T20:15:06.231Z,23.00
2018-09-04T20:17:35.289Z,22.90
2018-09-04T20:20:04.285Z,22.80
2018-09-04T20:22:33.031Z,22.71
2018-09-04T20:25:02.076Z,22.62
2018-09-04T20:27:31.093Z,22.52
2018-09-04T20:30:00.145Z,22.48
2018-09-04T20:32:35.680Z,22.41
2018-09-04T20:35:04.770Z,22.34
2018-09-04T20:37:34.248Z,22.30
2018-09-04T20:40:03.262Z,22.21
2018-09-04T20:42:32.020Z,22.15
2018-09-04T20:45:00.795Z,22.13
2018-09-04T20:47:29.653Z,22.10
2018-09-04T20:49:58.388Z,22.06
2018-09-04T20:52:27.668Z,22.02
2018-09-04T20:54:56.927Z,21.99
2018-09-04T20:57:35.565Z,21.95
2018-09-04T21:00:17.277Z,21.88
2018-09-04T21:02:57.028Z,21.80
2018-09-04T21:05:36.969Z,21.71
2018-09-04T21:08:18.111Z,21.68
2018-09-04T21:10:48.234Z,21.63
2018-09-04T21:13:17.562Z,21.57
2018-09-04T21:15:46.593Z,21.51
2018-09-04T21:18:15.295Z,21.46
2018-09-04T21:20:44.078Z,21.43
2018-09-04T21:23:13.417Z,21.39
2018-09-04T21:25:42.159Z,21.36
2018-09-04T21:28:10.944Z,21.30
2018-09-04T21:30:40.115Z,21.24
2018-09-04T21:33:09.268Z,21.14
2018-09-04T21:35:38.298Z,21.11
2018-09-04T21:38:07.129Z,21.09
2018-09-04T21:40:36.565Z,21.05
2018-09-04T21:43:05.695Z,21.02
2018-09-04T21:45:34.879Z,20.97
2018-09-04T21:48:03.679Z,20.91
2018-09-04T21:50:32.984Z,20.84
2018-09-04T21:53:02.097Z,20.76
2018-09-04T21:55:31.161Z,20.69
2018-09-04T21:58:00.236Z,20.65
2018-09-04T22:00:29.420Z,20.62
2018-09-04T22:02:58.915Z,20.58
2018-09-04T22:05:28.106Z,20.55
2018-09-04T22:07:57.926Z,20.52
2018-09-04T22:10:28.091Z,20.50
2018-09-04T22:12:57.503Z,20.47
2018-09-04T22:15:26.773Z,20.45
2018-09-04T22:17:56.466Z,20.41
2018-09-04T22:20:25.604Z,20.40
2018-09-04T22:22:54.573Z,20.37
2018-09-04T22:25:24.409Z,20.35
2018-09-04T22:27:53.495Z,20.28
2018-09-04T22:30:25.057Z,20.25
2018-09-04T22:32:53.878Z,20.22
2018-09-04T22:35:23.233Z,20.20
2018-09-04T22:37:51.968Z,20.17
2018-09-04T22:40:27.265Z,20.14
2018-09-04T22:42:56.022Z,20.10
2018-09-04T22:45:24.835Z,20.03
2018-09-04T22:47:54.229Z,19.97
2018-09-04T22:50:28.971Z,19.93
2018-09-04T22:52:57.737Z,19.86
2018-09-04T22:55:26.813Z,19.84
2018-09-04T22:57:55.632Z,19.80
2018-09-04T23:00:24.870Z,19.77
2018-09-04T23:02:54.469Z,19.73
2018-09-04T23:05:23.566Z,19.73
2018-09-04T23:07:52.604Z,19.72
2018-09-04T23:10:21.624Z,19.70
2018-09-04T23:12:51.159Z,19.66
2018-09-04T23:15:19.993Z,19.65
2018-09-04T23:17:48.725Z,19.63
2018-09-04T23:20:17.728Z,19.60
2018-09-04T23:22:47.056Z,19.57
2018-09-04T23:25:16.033Z,19.55
2018-09-04T23:27:45.411Z,19.47
2018-09-04T23:30:14.516Z,19.43
2018-09-04T23:32:44.838Z,19.41
2018-09-04T23:35:14.404Z,19.35
2018-09-04T23:37:44.042Z,19.27
2018-09-04T23:40:13.130Z,19.23
2018-09-04T23:42:42.510Z,19.18
2018-09-04T23:45:13.927Z,19.17
2018-09-04T23:47:43.732Z,19.14
2018-09-04T23:50:12.585Z,19.15
2018-09-04T23:52:41.561Z,19.12
2018-09-04T23:55:10.417Z,19.08
2018-09-04T23:57:39.911Z,19.06
